sensor_id;sensor_type;location;lat;lon;timestamp;P1;durP1;ratioP1;P2;durP2;ratioP2
9789;SDS011;4934;50.852;8.098;2022-11-15T00:01:34;24.70;;;10.60;;
9789;SDS011;4934;50.852;8.098;2022-11-15T00:04:02;21.42;;;11.35;;
9789;SDS011;4934;50.852;8.098;2022-11-15T00:06:28;16.63;;;9.75;;
9789;SDS011;4934;50.852;8.098;2022-11-15T00:08:54;19.55;;;10.85;;
9789;SDS011;4934;50.852;8.098;2022-11-15T00:11:19;23.55;;;11.05;;
9789;SDS011;4934;50.852;8.098;2022-11-15T00:13:45;23.58;;;11.43;;
9789;SDS011;4934;50.852;8.098;2022-11-15T00:16:11;19.05;;;10.60;;
9789;SDS011;4934;50.852;8.098;2022-11-15T00:18:37;21.85;;;10.75;;
9789;SDS011;4934;50.852;8.098;2022-11-15T00:21:04;20.30;;;11.48;;
9789;SDS011;4934;50.852;8.098;2022-11-15T00:23:32;22.85;;;10.68;;
9789;SDS011;4934;50.852;8.098;2022-11-15T00:25:58;23.05;;;11.75;;
9789;SDS011;4934;50.852;8.098;2022-11-15T00:28:24;21.48;;;10.75;;
9789;SDS011;4934;50.852;8.098;2022-11-15T00:30:50;27.42;;;12.75;;
9789;SDS011;4934;50.852;8.098;2022-11-15T00:33:16;19.95;;;10.75;;
9789;SDS011;4934;50.852;8.098;2022-11-15T00:35:42;21.92;;;13.05;;
9789;SDS011;4934;50.852;8.098;2022-11-15T00:38:07;18.95;;;11.07;;
9789;SDS011;4934;50.852;8.098;2022-11-15T00:40:33;21.92;;;11.27;;
9789;SDS011;4934;50.852;8.098;2022-11-15T00:42:58;18.45;;;10.45;;
9789;SDS011;4934;50.852;8.098;2022-11-15T00:45:24;21.90;;;10.07;;
9789;SDS011;4934;50.852;8.098;2022-11-15T00:47:50;17.85;;;9.85;;
9789;SDS011;4934;50.852;8.098;2022-11-15T00:50:16;15.85;;;9.10;;
9789;SDS011;4934;50.852;8.098;2022-11-15T00:52:42;16.55;;;8.82;;
9789;SDS011;4934;50.852;8.098;2022-11-15T00:55:17;19.52;;;7.75;;
9789;SDS011;4934;50.852;8.098;2022-11-15T00:57:44;16.25;;;8.88;;
9789;SDS011;4934;50.852;8.098;2022-11-15T01:00:11;15.32;;;7.72;;
9789;SDS011;4934;50.852;8.098;2022-11-15T01:02:37;17.38;;;8.43;;
9789;SDS011;4934;50.852;8.098;2022-11-15T01:05:02;15.00;;;7.32;;
9789;SDS011;4934;50.852;8.098;2022-11-15T01:07:28;18.40;;;7.82;;
9789;SDS011;4934;50.852;8.098;2022-11-15T01:09:54;16.58;;;8.30;;
9789;SDS011;4934;50.852;8.098;2022-11-15T01:12:19;13.93;;;7.07;;
9789;SDS011;4934;50.852;8.098;2022-11-15T01:14:45;14.52;;;8.00;;
9789;SDS011;4934;50.852;8.098;2022-11-15T01:17:10;15.23;;;7.32;;
9789;SDS011;4934;50.852;8.098;2022-11-15T01:19:36;15.70;;;7.85;;
9789;SDS011;4934;50.852;8.098;2022-11-15T01:22:01;14.40;;;7.18;;
9789;SDS011;4934;50.852;8.098;2022-11-15T01:24:27;14.18;;;6.82;;
9789;SDS011;4934;50.852;8.098;2022-11-15T01:26:53;13.30;;;6.78;;
9789;SDS011;4934;50.852;8.098;2022-11-15T01:29:18;12.23;;;7.18;;
9789;SDS011;4934;50.852;8.098;2022-11-15T01:31:44;11.20;;;6.78;;
9789;SDS011;4934;50.852;8.098;2022-11-15T01:34:09;13.35;;;7.55;;
9789;SDS011;4934;50.852;8.098;2022-11-15T01:36:35;20.27;;;6.88;;
9789;SDS011;4934;50.852;8.098;2022-11-15T01:39:01;13.82;;;7.13;;
9789;SDS011;4934;50.852;8.098;2022-11-15T01:41:31;12.88;;;6.63;;
9789;SDS011;4934;50.852;8.098;2022-11-15T01:44:31;10.15;;;6.15;;
9789;SDS011;4934;50.852;8.098;2022-11-15T01:46:58;15.13;;;7.55;;
9789;SDS011;4934;50.852;8.098;2022-11-15T01:49:26;13.70;;;7.07;;
9789;SDS011;4934;50.852;8.098;2022-11-15T01:51:55;14.90;;;6.05;;
9789;SDS011;4934;50.852;8.098;2022-11-15T01:54:21;12.90;;;7.20;;
9789;SDS011;4934;50.852;8.098;2022-11-15T01:56:50;12.80;;;7.47;;
9789;SDS011;4934;50.852;8.098;2022-11-15T01:59:19;16.92;;;8.20;;
9789;SDS011;4934;50.852;8.098;2022-11-15T02:01:46;14.43;;;8.50;;
9789;SDS011;4934;50.852;8.098;2022-11-15T02:04:16;22.83;;;9.30;;
9789;SDS011;4934;50.852;8.098;2022-11-15T02:06:46;13.77;;;8.23;;
9789;SDS011;4934;50.852;8.098;2022-11-15T02:09:13;14.57;;;8.73;;
9789;SDS011;4934;50.852;8.098;2022-11-15T02:11:39;17.13;;;9.70;;
9789;SDS011;4934;50.852;8.098;2022-11-15T02:14:06;18.30;;;9.73;;
9789;SDS011;4934;50.852;8.098;2022-11-15T02:27:13;24.73;;;11.32;;
9789;SDS011;4934;50.852;8.098;2022-11-15T02:30:13;22.52;;;11.07;;
9789;SDS011;4934;50.852;8.098;2022-11-15T02:36:05;24.77;;;10.23;;
9789;SDS011;4934;50.852;8.098;2022-11-15T02:38:38;21.55;;;10.88;;
9789;SDS011;4934;50.852;8.098;2022-11-15T02:41:09;20.20;;;10.18;;
9789;SDS011;4934;50.852;8.098;2022-11-15T02:43:54;18.80;;;10.05;;
9789;SDS011;4934;50.852;8.098;2022-11-15T02:49:28;17.38;;;9.02;;
9789;SDS011;4934;50.852;8.098;2022-11-15T02:51:56;18.50;;;9.73;;
9789;SDS011;4934;50.852;8.098;2022-11-15T02:54:27;22.25;;;10.23;;
9789;SDS011;4934;50.852;8.098;2022-11-15T02:57:04;20.65;;;10.35;;
9789;SDS011;4934;50.852;8.098;2022-11-15T03:02:32;19.15;;;8.48;;
9789;SDS011;4934;50.852;8.098;2022-11-15T03:05:25;18.98;;;9.75;;
9789;SDS011;4934;50.852;8.098;2022-11-15T03:07:55;16.58;;;9.05;;
9789;SDS011;4934;50.852;8.098;2022-11-15T03:16:01;18.40;;;9.10;;
9789;SDS011;4934;50.852;8.098;2022-11-15T03:18:35;19.95;;;8.43;;
9789;SDS011;4934;50.852;8.098;2022-11-15T03:21:07;17.70;;;9.18;;
9789;SDS011;4934;50.852;8.098;2022-11-15T03:23:36;15.57;;;8.00;;
9789;SDS011;4934;50.852;8.098;2022-11-15T03:26:03;23.92;;;10.13;;
9789;SDS011;4934;50.852;8.098;2022-11-15T03:28:36;18.52;;;9.30;;
9789;SDS011;4934;50.852;8.098;2022-11-15T03:31:05;19.70;;;10.35;;
9789;SDS011;4934;50.852;8.098;2022-11-15T03:33:52;17.90;;;9.05;;
9789;SDS011;4934;50.852;8.098;2022-11-15T03:36:21;16.85;;;8.30;;
9789;SDS011;4934;50.852;8.098;2022-11-15T03:38:49;16.08;;;8.57;;
9789;SDS011;4934;50.852;8.098;2022-11-15T03:41:23;17.08;;;9.02;;
9789;SDS011;4934;50.852;8.098;2022-11-15T03:43:57;16.38;;;9.10;;
9789;SDS011;4934;50.852;8.098;2022-11-15T03:46:33;19.52;;;10.13;;
9789;SDS011;4934;50.852;8.098;2022-11-15T03:49:13;17.20;;;9.23;;
9789;SDS011;4934;50.852;8.098;2022-11-15T03:51:42;18.58;;;9.50;;
9789;SDS011;4934;50.852;8.098;2022-11-15T03:54:08;16.63;;;8.80;;
9789;SDS011;4934;50.852;8.098;2022-11-15T03:56:33;18.83;;;10.75;;
9789;SDS011;4934;50.852;8.098;2022-11-15T03:58:59;19.38;;;9.38;;
9789;SDS011;4934;50.852;8.098;2022-11-15T04:01:25;24.00;;;9.50;;
9789;SDS011;4934;50.852;8.098;2022-11-15T04:03:50;20.48;;;9.57;;
9789;SDS011;4934;50.852;8.098;2022-11-15T04:06:16;16.88;;;9.18;;
9789;SDS011;4934;50.852;8.098;2022-11-15T04:08:41;17.98;;;8.98;;
9789;SDS011;4934;50.852;8.098;2022-11-15T04:11:07;19.83;;;10.20;;
9789;SDS011;4934;50.852;8.098;2022-11-15T04:13:33;26.58;;;10.02;;
9789;SDS011;4934;50.852;8.098;2022-11-15T04:15:58;17.33;;;8.85;;
9789;SDS011;4934;50.852;8.098;2022-11-15T04:18:24;18.20;;;10.00;;
9789;SDS011;4934;50.852;8.098;2022-11-15T04:20:49;16.67;;;8.60;;
9789;SDS011;4934;50.852;8.098;2022-11-15T04:23:34;21.25;;;8.98;;
9789;SDS011;4934;50.852;8.098;2022-11-15T04:26:18;19.02;;;8.75;;
9789;SDS011;4934;50.852;8.098;2022-11-15T04:28:46;19.17;;;9.60;;
9789;SDS011;4934;50.852;8.098;2022-11-15T04:31:30;15.27;;;8.55;;
9789;SDS011;4934;50.852;8.098;2022-11-15T04:33:56;16.52;;;8.25;;
9789;SDS011;4934;50.852;8.098;2022-11-15T04:36:22;19.00;;;7.93;;
9789;SDS011;4934;50.852;8.098;2022-11-15T04:39:06;17.17;;;8.75;;
9789;SDS011;4934;50.852;8.098;2022-11-15T04:41:32;19.70;;;9.15;;
9789;SDS011;4934;50.852;8.098;2022-11-15T04:43:58;19.48;;;8.48;;
9789;SDS011;4934;50.852;8.098;2022-11-15T04:46:24;16.67;;;9.15;;
9789;SDS011;4934;50.852;8.098;2022-11-15T04:48:50;16.02;;;8.73;;
9789;SDS011;4934;50.852;8.098;2022-11-15T04:51:16;17.10;;;8.38;;
9789;SDS011;4934;50.852;8.098;2022-11-15T04:53:42;16.05;;;8.80;;
9789;SDS011;4934;50.852;8.098;2022-11-15T04:56:08;19.55;;;8.68;;
9789;SDS011;4934;50.852;8.098;2022-11-15T04:58:34;15.27;;;8.80;;
9789;SDS011;4934;50.852;8.098;2022-11-15T05:01:10;16.83;;;8.45;;
9789;SDS011;4934;50.852;8.098;2022-11-15T05:03:37;14.70;;;7.93;;
9789;SDS011;4934;50.852;8.098;2022-11-15T05:06:21;15.85;;;7.75;;
9789;SDS011;4934;50.852;8.098;2022-11-15T05:08:47;14.18;;;8.43;;
9789;SDS011;4934;50.852;8.098;2022-11-15T05:11:12;15.55;;;7.80;;
9789;SDS011;4934;50.852;8.098;2022-11-15T05:13:38;20.55;;;8.82;;
9789;SDS011;4934;50.852;8.098;2022-11-15T05:16:03;18.77;;;8.32;;
9789;SDS011;4934;50.852;8.098;2022-11-15T05:18:29;15.57;;;7.50;;
9789;SDS011;4934;50.852;8.098;2022-11-15T05:20:55;15.25;;;7.93;;
9789;SDS011;4934;50.852;8.098;2022-11-15T05:23:20;15.98;;;7.88;;
9789;SDS011;4934;50.852;8.098;2022-11-15T05:25:46;16.15;;;7.53;;
9789;SDS011;4934;50.852;8.098;2022-11-15T05:28:12;14.73;;;7.15;;
9789;SDS011;4934;50.852;8.098;2022-11-15T05:30:38;15.52;;;6.93;;
9789;SDS011;4934;50.852;8.098;2022-11-15T05:33:03;17.63;;;8.02;;
9789;SDS011;4934;50.852;8.098;2022-11-15T05:35:30;14.52;;;6.95;;
9789;SDS011;4934;50.852;8.098;2022-11-15T05:37:59;12.18;;;6.72;;
9789;SDS011;4934;50.852;8.098;2022-11-15T05:40:25;10.10;;;5.80;;
9789;SDS011;4934;50.852;8.098;2022-11-15T05:42:52;12.10;;;7.22;;
9789;SDS011;4934;50.852;8.098;2022-11-15T05:45:18;12.60;;;7.20;;
9789;SDS011;4934;50.852;8.098;2022-11-15T05:47:44;12.00;;;6.90;;
9789;SDS011;4934;50.852;8.098;2022-11-15T05:50:14;15.10;;;8.05;;
9789;SDS011;4934;50.852;8.098;2022-11-15T05:52:41;15.75;;;6.55;;
9789;SDS011;4934;50.852;8.098;2022-11-15T05:55:07;17.77;;;7.55;;
9789;SDS011;4934;50.852;8.098;2022-11-15T05:57:34;15.75;;;8.05;;
9789;SDS011;4934;50.852;8.098;2022-11-15T06:00:00;16.30;;;7.45;;
9789;SDS011;4934;50.852;8.098;2022-11-15T06:02:26;13.70;;;6.75;;
9789;SDS011;4934;50.852;8.098;2022-11-15T06:04:52;13.70;;;7.55;;
9789;SDS011;4934;50.852;8.098;2022-11-15T06:07:17;15.23;;;7.13;;
9789;SDS011;4934;50.852;8.098;2022-11-15T06:09:43;13.93;;;7.00;;
9789;SDS011;4934;50.852;8.098;2022-11-15T06:12:09;13.07;;;7.43;;
9789;SDS011;4934;50.852;8.098;2022-11-15T06:14:34;13.73;;;7.00;;
9789;SDS011;4934;50.852;8.098;2022-11-15T06:17:00;13.38;;;5.97;;
9789;SDS011;4934;50.852;8.098;2022-11-15T06:19:25;10.88;;;6.13;;
9789;SDS011;4934;50.852;8.098;2022-11-15T06:21:51;10.77;;;6.25;;
9789;SDS011;4934;50.852;8.098;2022-11-15T06:24:16;11.60;;;5.80;;
9789;SDS011;4934;50.852;8.098;2022-11-15T06:26:42;11.25;;;5.70;;
9789;SDS011;4934;50.852;8.098;2022-11-15T06:29:07;12.40;;;5.95;;
9789;SDS011;4934;50.852;8.098;2022-11-15T06:31:34;9.38;;;5.40;;
9789;SDS011;4934;50.852;8.098;2022-11-15T06:33:59;8.05;;;4.30;;
9789;SDS011;4934;50.852;8.098;2022-11-15T06:36:25;7.60;;;4.60;;
9789;SDS011;4934;50.852;8.098;2022-11-15T06:38:51;8.25;;;4.25;;
9789;SDS011;4934;50.852;8.098;2022-11-15T06:41:16;7.63;;;4.43;;
9789;SDS011;4934;50.852;8.098;2022-11-15T06:43:42;9.25;;;4.45;;
9789;SDS011;4934;50.852;8.098;2022-11-15T06:46:08;7.78;;;4.43;;
9789;SDS011;4934;50.852;8.098;2022-11-15T06:48:34;9.63;;;4.25;;
9789;SDS011;4934;50.852;8.098;2022-11-15T06:51:01;7.90;;;4.28;;
9789;SDS011;4934;50.852;8.098;2022-11-15T06:53:29;7.13;;;4.03;;
9789;SDS011;4934;50.852;8.098;2022-11-15T06:55:59;12.52;;;6.47;;
9789;SDS011;4934;50.852;8.098;2022-11-15T06:58:29;10.32;;;4.47;;
9789;SDS011;4934;50.852;8.098;2022-11-15T07:01:29;7.20;;;3.70;;
9789;SDS011;4934;50.852;8.098;2022-11-15T07:03:47;5.82;;;3.75;;
9789;SDS011;4934;50.852;8.098;2022-11-15T07:06:13;6.82;;;3.80;;
9789;SDS011;4934;50.852;8.098;2022-11-15T07:08:38;8.57;;;3.92;;
9789;SDS011;4934;50.852;8.098;2022-11-15T07:11:07;5.47;;;3.20;;
9789;SDS011;4934;50.852;8.098;2022-11-15T07:13:33;8.82;;;5.07;;
9789;SDS011;4934;50.852;8.098;2022-11-15T07:16:04;7.15;;;3.58;;
9789;SDS011;4934;50.852;8.098;2022-11-15T07:18:30;7.15;;;3.80;;
9789;SDS011;4934;50.852;8.098;2022-11-15T07:20:59;4.88;;;3.30;;
9789;SDS011;4934;50.852;8.098;2022-11-15T07:23:25;7.90;;;4.35;;
9789;SDS011;4934;50.852;8.098;2022-11-15T07:25:51;7.30;;;4.32;;
9789;SDS011;4934;50.852;8.098;2022-11-15T07:28:16;7.63;;;4.28;;
9789;SDS011;4934;50.852;8.098;2022-11-15T07:30:42;8.07;;;4.00;;
9789;SDS011;4934;50.852;8.098;2022-11-15T07:33:08;7.85;;;4.25;;
9789;SDS011;4934;50.852;8.098;2022-11-15T07:35:33;8.90;;;4.97;;
9789;SDS011;4934;50.852;8.098;2022-11-15T07:38:00;11.82;;;5.70;;
9789;SDS011;4934;50.852;8.098;2022-11-15T07:40:27;7.57;;;5.03;;
9789;SDS011;4934;50.852;8.098;2022-11-15T07:43:01;7.15;;;4.82;;
9789;SDS011;4934;50.852;8.098;2022-11-15T07:45:28;9.70;;;5.80;;
9789;SDS011;4934;50.852;8.098;2022-11-15T07:47:54;8.55;;;5.32;;
9789;SDS011;4934;50.852;8.098;2022-11-15T07:50:21;12.82;;;5.50;;
9789;SDS011;4934;50.852;8.098;2022-11-15T07:52:52;10.80;;;5.53;;
9789;SDS011;4934;50.852;8.098;2022-11-15T07:55:19;10.32;;;5.07;;
9789;SDS011;4934;50.852;8.098;2022-11-15T07:57:45;6.22;;;4.38;;
9789;SDS011;4934;50.852;8.098;2022-11-15T08:00:10;9.98;;;4.82;;
9789;SDS011;4934;50.852;8.098;2022-11-15T08:02:36;8.13;;;4.60;;
9789;SDS011;4934;50.852;8.098;2022-11-15T08:05:02;12.20;;;4.93;;
9789;SDS011;4934;50.852;8.098;2022-11-15T08:07:28;14.65;;;5.63;;
9789;SDS011;4934;50.852;8.098;2022-11-15T08:09:55;9.32;;;4.53;;
9789;SDS011;4934;50.852;8.098;2022-11-15T08:12:21;9.98;;;5.32;;
9789;SDS011;4934;50.852;8.098;2022-11-15T08:14:47;8.45;;;4.90;;
9789;SDS011;4934;50.852;8.098;2022-11-15T08:17:13;7.90;;;3.95;;
9789;SDS011;4934;50.852;8.098;2022-11-15T08:19:39;8.00;;;4.35;;
9789;SDS011;4934;50.852;8.098;2022-11-15T08:22:04;10.27;;;4.03;;
9789;SDS011;4934;50.852;8.098;2022-11-15T08:24:30;7.97;;;3.85;;
9789;SDS011;4934;50.852;8.098;2022-11-15T08:26:55;6.88;;;3.92;;
9789;SDS011;4934;50.852;8.098;2022-11-15T08:29:21;5.22;;;3.15;;
9789;SDS011;4934;50.852;8.098;2022-11-15T08:31:47;14.85;;;4.03;;
9789;SDS011;4934;50.852;8.098;2022-11-15T08:34:12;5.82;;;3.38;;
9789;SDS011;4934;50.852;8.098;2022-11-15T08:36:38;6.43;;;3.67;;
9789;SDS011;4934;50.852;8.098;2022-11-15T08:39:04;5.75;;;3.30;;
9789;SDS011;4934;50.852;8.098;2022-11-15T08:41:31;7.75;;;3.08;;
9789;SDS011;4934;50.852;8.098;2022-11-15T08:44:00;8.05;;;3.90;;
9789;SDS011;4934;50.852;8.098;2022-11-15T08:46:26;6.63;;;3.10;;
9789;SDS011;4934;50.852;8.098;2022-11-15T08:48:52;6.55;;;3.40;;
9789;SDS011;4934;50.852;8.098;2022-11-15T08:51:17;4.78;;;2.88;;
9789;SDS011;4934;50.852;8.098;2022-11-15T08:53:44;8.32;;;3.92;;
9789;SDS011;4934;50.852;8.098;2022-11-15T08:56:10;5.72;;;3.63;;
9789;SDS011;4934;50.852;8.098;2022-11-15T08:58:37;6.38;;;3.58;;
9789;SDS011;4934;50.852;8.098;2022-11-15T09:01:03;7.03;;;3.53;;
9789;SDS011;4934;50.852;8.098;2022-11-15T09:03:28;5.55;;;3.10;;
9789;SDS011;4934;50.852;8.098;2022-11-15T09:05:55;5.03;;;3.35;;
9789;SDS011;4934;50.852;8.098;2022-11-15T09:08:21;7.50;;;3.58;;
9789;SDS011;4934;50.852;8.098;2022-11-15T09:10:47;6.82;;;3.63;;
9789;SDS011;4934;50.852;8.098;2022-11-15T09:13:13;5.13;;;3.10;;
9789;SDS011;4934;50.852;8.098;2022-11-15T09:15:39;5.95;;;3.67;;
9789;SDS011;4934;50.852;8.098;2022-11-15T09:18:05;4.15;;;2.72;;
9789;SDS011;4934;50.852;8.098;2022-11-15T09:20:30;5.70;;;4.13;;
9789;SDS011;4934;50.852;8.098;2022-11-15T09:23:00;5.88;;;3.78;;
9789;SDS011;4934;50.852;8.098;2022-11-15T09:25:29;5.00;;;3.30;;
9789;SDS011;4934;50.852;8.098;2022-11-15T09:27:55;9.30;;;4.13;;
9789;SDS011;4934;50.852;8.098;2022-11-15T09:30:22;7.57;;;3.58;;
9789;SDS011;4934;50.852;8.098;2022-11-15T09:32:48;7.85;;;4.22;;
9789;SDS011;4934;50.852;8.098;2022-11-15T09:35:14;6.97;;;3.50;;
9789;SDS011;4934;50.852;8.098;2022-11-15T09:37:40;6.45;;;3.55;;
9789;SDS011;4934;50.852;8.098;2022-11-15T09:40:06;6.88;;;4.03;;
9789;SDS011;4934;50.852;8.098;2022-11-15T09:45:23;6.95;;;4.40;;
9789;SDS011;4934;50.852;8.098;2022-11-15T09:50:43;7.43;;;3.42;;
9789;SDS011;4934;50.852;8.098;2022-11-15T09:53:22;6.05;;;3.33;;
9789;SDS011;4934;50.852;8.098;2022-11-15T10:04:20;7.50;;;3.40;;
9789;SDS011;4934;50.852;8.098;2022-11-15T10:06:49;7.38;;;4.05;;
9789;SDS011;4934;50.852;8.098;2022-11-15T10:09:32;5.95;;;3.42;;
9789;SDS011;4934;50.852;8.098;2022-11-15T10:12:18;6.85;;;3.55;;
9789;SDS011;4934;50.852;8.098;2022-11-15T10:14:45;5.00;;;3.15;;
9789;SDS011;4934;50.852;8.098;2022-11-15T10:17:26;5.78;;;3.33;;
9789;SDS011;4934;50.852;8.098;2022-11-15T10:20:21;7.05;;;2.80;;
9789;SDS011;4934;50.852;8.098;2022-11-15T10:23:00;4.18;;;2.42;;
9789;SDS011;4934;50.852;8.098;2022-11-15T10:25:33;4.40;;;2.50;;
9789;SDS011;4934;50.852;8.098;2022-11-15T10:30:54;5.15;;;2.63;;
9789;SDS011;4934;50.852;8.098;2022-11-15T10:44:17;3.20;;;2.20;;
9789;SDS011;4934;50.852;8.098;2022-11-15T10:47:05;3.92;;;2.15;;
9789;SDS011;4934;50.852;8.098;2022-11-15T10:49:56;9.52;;;2.20;;
9789;SDS011;4934;50.852;8.098;2022-11-15T10:52:22;7.47;;;2.20;;
9789;SDS011;4934;50.852;8.098;2022-11-15T10:57:55;7.68;;;2.33;;
9789;SDS011;4934;50.852;8.098;2022-11-15T11:00:27;4.38;;;2.22;;
9789;SDS011;4934;50.852;8.098;2022-11-15T11:03:06;5.28;;;2.70;;
9789;SDS011;4934;50.852;8.098;2022-11-15T11:06:11;3.25;;;1.67;;
9789;SDS011;4934;50.852;8.098;2022-11-15T11:08:39;3.28;;;1.90;;
9789;SDS011;4934;50.852;8.098;2022-11-15T11:11:06;4.22;;;1.60;;
9789;SDS011;4934;50.852;8.098;2022-11-15T11:13:37;3.60;;;2.03;;
9789;SDS011;4934;50.852;8.098;2022-11-15T11:35:13;3.25;;;1.67;;
9789;SDS011;4934;50.852;8.098;2022-11-15T11:37:47;6.68;;;2.03;;
9789;SDS011;4934;50.852;8.098;2022-11-15T11:40:29;5.93;;;2.22;;
9789;SDS011;4934;50.852;8.098;2022-11-15T11:45:38;2.55;;;1.77;;
9789;SDS011;4934;50.852;8.098;2022-11-15T11:48:34;5.95;;;1.90;;
9789;SDS011;4934;50.852;8.098;2022-11-15T11:56:22;4.03;;;1.50;;
9789;SDS011;4934;50.852;8.098;2022-11-15T11:59:00;5.20;;;1.60;;
9789;SDS011;4934;50.852;8.098;2022-11-15T12:01:42;3.80;;;1.20;;
9789;SDS011;4934;50.852;8.098;2022-11-15T12:04:16;16.63;;;4.97;;
9789;SDS011;4934;50.852;8.098;2022-11-15T12:09:50;7.30;;;3.55;;
9789;SDS011;4934;50.852;8.098;2022-11-15T12:15:35;9.18;;;2.97;;
9789;SDS011;4934;50.852;8.098;2022-11-15T12:18:08;4.75;;;1.50;;
9789;SDS011;4934;50.852;8.098;2022-11-15T12:20:40;6.03;;;2.40;;
9789;SDS011;4934;50.852;8.098;2022-11-15T12:23:19;22.52;;;7.57;;
9789;SDS011;4934;50.852;8.098;2022-11-15T12:25:52;22.35;;;7.43;;
9789;SDS011;4934;50.852;8.098;2022-11-15T12:28:38;15.20;;;5.72;;
9789;SDS011;4934;50.852;8.098;2022-11-15T12:34:01;4.65;;;1.48;;
9789;SDS011;4934;50.852;8.098;2022-11-15T12:36:36;5.50;;;1.83;;
9789;SDS011;4934;50.852;8.098;2022-11-15T12:39:05;6.95;;;1.92;;
9789;SDS011;4934;50.852;8.098;2022-11-15T12:41:39;4.47;;;2.00;;
9789;SDS011;4934;50.852;8.098;2022-11-15T12:45:22;6.30;;;1.80;;
9789;SDS011;4934;50.852;8.098;2022-11-15T12:47:22;4.15;;;2.17;;
9789;SDS011;4934;50.852;8.098;2022-11-15T12:49:49;7.63;;;2.22;;
9789;SDS011;4934;50.852;8.098;2022-11-15T12:52:16;2.33;;;1.42;;
9789;SDS011;4934;50.852;8.098;2022-11-15T12:59:52;5.32;;;0.98;;
9789;SDS011;4934;50.852;8.098;2022-11-15T13:02:33;3.13;;;1.02;;
9789;SDS011;4934;50.852;8.098;2022-11-15T13:17:40;3.63;;;1.52;;
9789;SDS011;4934;50.852;8.098;2022-11-15T13:28:01;5.00;;;1.40;;
9789;SDS011;4934;50.852;8.098;2022-11-15T13:30:35;5.57;;;2.60;;
9789;SDS011;4934;50.852;8.098;2022-11-15T13:33:09;1.65;;;1.25;;
9789;SDS011;4934;50.852;8.098;2022-11-15T13:35:40;4.30;;;2.50;;
9789;SDS011;4934;50.852;8.098;2022-11-15T13:38:25;5.68;;;1.70;;
9789;SDS011;4934;50.852;8.098;2022-11-15T13:40:55;2.45;;;1.33;;
9789;SDS011;4934;50.852;8.098;2022-11-15T13:46:22;2.80;;;1.40;;
9789;SDS011;4934;50.852;8.098;2022-11-15T13:48:55;2.63;;;1.73;;
9789;SDS011;4934;50.852;8.098;2022-11-15T13:51:26;2.88;;;1.98;;
9789;SDS011;4934;50.852;8.098;2022-11-15T13:54:15;3.65;;;2.47;;
9789;SDS011;4934;50.852;8.098;2022-11-15T13:56:57;5.05;;;2.00;;
9789;SDS011;4934;50.852;8.098;2022-11-15T13:59:32;9.60;;;1.85;;
9789;SDS011;4934;50.852;8.098;2022-11-15T14:02:13;3.25;;;1.98;;
9789;SDS011;4934;50.852;8.098;2022-11-15T14:04:51;4.90;;;1.58;;
9789;SDS011;4934;50.852;8.098;2022-11-15T14:07:18;3.45;;;2.08;;
9789;SDS011;4934;50.852;8.098;2022-11-15T14:09:45;3.65;;;1.75;;
9789;SDS011;4934;50.852;8.098;2022-11-15T14:14:57;7.55;;;2.40;;
9789;SDS011;4934;50.852;8.098;2022-11-15T14:19:59;3.10;;;1.98;;
9789;SDS011;4934;50.852;8.098;2022-11-15T14:22:28;4.15;;;2.05;;
9789;SDS011;4934;50.852;8.098;2022-11-15T14:25:13;2.30;;;1.67;;
9789;SDS011;4934;50.852;8.098;2022-11-15T14:30:36;7.10;;;2.00;;
9789;SDS011;4934;50.852;8.098;2022-11-15T14:33:14;4.45;;;2.13;;
9789;SDS011;4934;50.852;8.098;2022-11-15T14:35:45;4.45;;;2.47;;
9789;SDS011;4934;50.852;8.098;2022-11-15T14:38:12;6.22;;;2.17;;
9789;SDS011;4934;50.852;8.098;2022-11-15T14:40:38;4.05;;;2.33;;
9789;SDS011;4934;50.852;8.098;2022-11-15T14:43:03;3.67;;;2.30;;
9789;SDS011;4934;50.852;8.098;2022-11-15T14:45:29;4.45;;;1.58;;
9789;SDS011;4934;50.852;8.098;2022-11-15T14:47:55;3.05;;;1.85;;
9789;SDS011;4934;50.852;8.098;2022-11-15T14:50:20;4.18;;;2.08;;
9789;SDS011;4934;50.852;8.098;2022-11-15T14:52:47;3.42;;;1.73;;
9789;SDS011;4934;50.852;8.098;2022-11-15T14:55:20;2.53;;;1.73;;
9789;SDS011;4934;50.852;8.098;2022-11-15T14:57:57;5.53;;;2.13;;
9789;SDS011;4934;50.852;8.098;2022-11-15T15:00:23;3.33;;;1.75;;
9789;SDS011;4934;50.852;8.098;2022-11-15T15:02:50;4.13;;;1.77;;
9789;SDS011;4934;50.852;8.098;2022-11-15T15:07:49;3.33;;;1.77;;
9789;SDS011;4934;50.852;8.098;2022-11-15T15:10:16;2.20;;;1.52;;
9789;SDS011;4934;50.852;8.098;2022-11-15T15:12:42;2.55;;;1.88;;
9789;SDS011;4934;50.852;8.098;2022-11-15T15:15:12;4.15;;;2.10;;
9789;SDS011;4934;50.852;8.098;2022-11-15T15:17:39;2.28;;;1.70;;
9789;SDS011;4934;50.852;8.098;2022-11-15T15:20:05;7.43;;;2.00;;
9789;SDS011;4934;50.852;8.098;2022-11-15T15:22:31;3.63;;;1.98;;
9789;SDS011;4934;50.852;8.098;2022-11-15T15:24:57;6.43;;;1.67;;
9789;SDS011;4934;50.852;8.098;2022-11-15T15:27:22;5.65;;;1.58;;
9789;SDS011;4934;50.852;8.098;2022-11-15T15:29:48;3.25;;;1.73;;
9789;SDS011;4934;50.852;8.098;2022-11-15T15:32:14;3.83;;;1.73;;
9789;SDS011;4934;50.852;8.098;2022-11-15T15:34:39;6.38;;;1.85;;
9789;SDS011;4934;50.852;8.098;2022-11-15T15:39:51;3.28;;;2.00;;
9789;SDS011;4934;50.852;8.098;2022-11-15T15:42:19;4.10;;;2.40;;
9789;SDS011;4934;50.852;8.098;2022-11-15T15:44:45;4.13;;;2.05;;
9789;SDS011;4934;50.852;8.098;2022-11-15T15:47:15;4.00;;;2.30;;
9789;SDS011;4934;50.852;8.098;2022-11-15T15:49:43;9.88;;;5.15;;
9789;SDS011;4934;50.852;8.098;2022-11-15T15:52:09;10.98;;;4.45;;
9789;SDS011;4934;50.852;8.098;2022-11-15T15:54:34;8.25;;;3.92;;
9789;SDS011;4934;50.852;8.098;2022-11-15T15:57:00;6.07;;;3.85;;
9789;SDS011;4934;50.852;8.098;2022-11-15T15:59:26;10.93;;;4.78;;
9789;SDS011;4934;50.852;8.098;2022-11-15T16:01:51;8.20;;;5.07;;
9789;SDS011;4934;50.852;8.098;2022-11-15T16:04:17;8.35;;;4.60;;
9789;SDS011;4934;50.852;8.098;2022-11-15T16:06:43;13.60;;;5.00;;
9789;SDS011;4934;50.852;8.098;2022-11-15T16:09:15;9.88;;;5.85;;
9789;SDS011;4934;50.852;8.098;2022-11-15T16:11:43;8.52;;;5.20;;
9789;SDS011;4934;50.852;8.098;2022-11-15T16:14:09;12.98;;;5.85;;
9789;SDS011;4934;50.852;8.098;2022-11-15T16:16:35;15.65;;;10.23;;
9789;SDS011;4934;50.852;8.098;2022-11-15T16:19:02;12.25;;;6.93;;
9789;SDS011;4934;50.852;8.098;2022-11-15T16:21:28;12.02;;;6.63;;
9789;SDS011;4934;50.852;8.098;2022-11-15T16:23:54;11.35;;;5.82;;
9789;SDS011;4934;50.852;8.098;2022-11-15T16:28:53;14.25;;;7.38;;
9789;SDS011;4934;50.852;8.098;2022-11-15T16:31:19;9.35;;;6.13;;
9789;SDS011;4934;50.852;8.098;2022-11-15T16:33:48;27.75;;;6.97;;
9789;SDS011;4934;50.852;8.098;2022-11-15T16:36:17;11.13;;;6.70;;
9789;SDS011;4934;50.852;8.098;2022-11-15T16:38:46;14.10;;;6.95;;
9789;SDS011;4934;50.852;8.098;2022-11-15T16:41:12;13.93;;;7.53;;
9789;SDS011;4934;50.852;8.098;2022-11-15T16:43:38;10.80;;;7.05;;
9789;SDS011;4934;50.852;8.098;2022-11-15T16:46:11;12.18;;;6.75;;
9789;SDS011;4934;50.852;8.098;2022-11-15T16:48:46;12.52;;;6.63;;
9789;SDS011;4934;50.852;8.098;2022-11-15T16:51:12;16.73;;;8.43;;
9789;SDS011;4934;50.852;8.098;2022-11-15T16:53:39;10.38;;;7.15;;
9789;SDS011;4934;50.852;8.098;2022-11-15T16:56:25;9.52;;;6.03;;
9789;SDS011;4934;50.852;8.098;2022-11-15T16:58:55;12.95;;;7.93;;
9789;SDS011;4934;50.852;8.098;2022-11-15T17:01:25;11.25;;;6.75;;
9789;SDS011;4934;50.852;8.098;2022-11-15T17:03:56;17.70;;;7.13;;
9789;SDS011;4934;50.852;8.098;2022-11-15T17:06:22;12.75;;;8.02;;
9789;SDS011;4934;50.852;8.098;2022-11-15T17:08:49;11.80;;;6.85;;
9789;SDS011;4934;50.852;8.098;2022-11-15T17:11:18;13.30;;;7.38;;
9789;SDS011;4934;50.852;8.098;2022-11-15T17:13:46;17.45;;;7.55;;
9789;SDS011;4934;50.852;8.098;2022-11-15T17:16:14;11.77;;;6.50;;
9789;SDS011;4934;50.852;8.098;2022-11-15T17:18:40;12.23;;;6.63;;
9789;SDS011;4934;50.852;8.098;2022-11-15T17:21:13;12.68;;;6.82;;
9789;SDS011;4934;50.852;8.098;2022-11-15T17:23:40;11.00;;;6.97;;
9789;SDS011;4934;50.852;8.098;2022-11-15T17:26:06;12.25;;;6.82;;
9789;SDS011;4934;50.852;8.098;2022-11-15T17:28:32;10.75;;;6.50;;
9789;SDS011;4934;50.852;8.098;2022-11-15T17:30:58;11.60;;;6.47;;
9789;SDS011;4934;50.852;8.098;2022-11-15T17:33:24;11.18;;;5.57;;
9789;SDS011;4934;50.852;8.098;2022-11-15T17:35:56;9.45;;;6.28;;
9789;SDS011;4934;50.852;8.098;2022-11-15T17:38:23;11.75;;;6.30;;